Time;durP1;ratioP1;P1;durP2;ratioP2;P2;SDS_P1;SDS_P2;PMS_P1;PMS_P2;Temp;Humidity;BMP_temperature;BMP_pressure;BME280_temperature;BME280_humidity;BME280_pressure;Samples;Min_cycle;Max_cycle;Signal;HPM_P1;HPM_P2
2022/09/03 00:00:24;;;;;;;5.17;1.90;;;18.60;57.30;;;;;;5038792;28;20494;-73
2022/09/03 00:02:59;;;;;;;4.83;1.50;;;18.50;57.30;;;;;;5017982;28;20826;-73
2022/09/03 00:05:38;;;;;;;10.73;2.33;;;18.40;57.50;;;;;;5032704;28;20449;-73
2022/09/03 00:08:11;;;;;;;3.83;1.53;;;18.40;57.60;;;;;;5035704;28;21398;-73
2022/09/03 00:10:46;;;;;;;4.33;1.73;;;18.30;57.70;;;;;;5037739;28;20474;-73
2022/09/03 00:13:19;;;;;;;4.63;1.80;;;18.40;57.80;;;;;;5035792;28;20466;-73
2022/09/03 00:15:48;;;;;;;5.17;1.90;;;18.40;57.90;;;;;;5038942;28;20453;-73
2022/09/03 00:18:20;;;;;;;3.90;1.50;;;18.50;57.90;;;;;;5021323;28;20460;-73
2022/09/03 00:20:56;;;;;;;6.33;1.97;;;18.40;58.00;;;;;;5038905;28;20449;-73
2022/09/03 00:23:27;;;;;;;5.40;1.90;;;18.40;58.00;;;;;;5038018;28;20915;-72
2022/09/03 00:26:00;;;;;;;6.53;1.80;;;18.40;58.10;;;;;;5040946;28;20456;-73
2022/09/03 00:28:36;;;;;;;6.17;2.30;;;18.50;58.10;;;;;;5035990;28;21131;-73
2022/09/03 00:31:12;;;;;;;5.90;1.70;;;18.50;58.10;;;;;;5043207;28;20958;-72
2022/09/03 00:33:42;;;;;;;5.20;2.33;;;18.50;58.00;;;;;;5037531;28;20468;-73
2022/09/03 00:36:17;;;;;;;4.13;1.57;;;18.40;58.00;;;;;;5024513;28;20881;-73
2022/09/03 00:38:45;;;;;;;4.40;1.83;;;18.40;58.10;;;;;;5042151;28;20480;-73
2022/09/03 00:41:25;;;;;;;4.53;1.93;;;18.40;58.10;;;;;;5034951;28;20463;-72
2022/09/03 00:44:05;;;;;;;6.00;1.90;;;18.40;58.20;;;;;;5020857;28;20826;-73
2022/09/03 00:46:41;;;;;;;4.63;2.00;;;18.40;58.20;;;;;;5039377;28;20467;-73
2022/09/03 00:49:27;;;;;;;6.10;2.30;;;18.40;58.20;;;;;;5027388;28;21134;-73
2022/09/03 00:52:05;;;;;;;4.67;2.10;;;18.50;58.30;;;;;;5037125;28;20458;-73
2022/09/03 00:54:41;;;;;;;8.77;2.47;;;18.40;58.20;;;;;;5043378;28;21024;-73
2022/09/03 00:57:24;;;;;;;5.33;1.70;;;18.40;58.10;;;;;;5040226;28;20548;-73
2022/09/03 01:00:01;;;;;;;5.63;1.60;;;18.30;58.30;;;;;;5040806;28;20589;-72
2022/09/03 01:02:40;;;;;;;4.40;1.83;;;18.30;58.40;;;;;;5038443;28;21074;-73
2022/09/03 01:05:17;;;;;;;4.73;1.90;;;18.20;58.30;;;;;;5037045;28;20493;-73
2022/09/03 01:07:54;;;;;;;4.50;1.53;;;18.10;58.50;;;;;;5040616;28;20457;-73
2022/09/03 01:10:31;;;;;;;4.37;1.80;;;18.20;58.60;;;;;;5041241;28;21000;-73
2022/09/03 01:13:07;;;;;;;5.70;2.13;;;18.20;58.60;;;;;;5043475;28;21211;-73
2022/09/03 01:15:44;;;;;;;4.97;1.97;;;18.20;58.70;;;;;;5036762;28;20547;-73
2022/09/03 01:18:20;;;;;;;6.03;2.03;;;18.30;58.70;;;;;;5041710;28;21038;-73
2022/09/03 01:21:08;;;;;;;4.27;1.90;;;18.30;58.70;;;;;;5036951;28;20468;-73
2022/09/03 01:24:06;;;;;;;5.60;1.80;;;18.30;58.60;;;;;;5018836;28;20456;-73
2022/09/03 01:27:04;;;;;;;4.27;2.07;;;18.30;58.60;;;;;;5037398;28;20465;-73
2022/09/03 01:29:40;;;;;;;6.00;1.90;;;18.20;58.60;;;;;;5037376;28;20575;-73
2022/09/03 01:32:14;;;;;;;4.00;1.70;;;18.20;58.60;;;;;;5037619;28;20477;-73
2022/09/03 01:34:52;;;;;;;4.53;2.00;;;18.10;58.70;;;;;;5021899;28;21237;-73
2022/09/03 01:37:31;;;;;;;4.60;1.80;;;18.10;58.70;;;;;;5035598;28;20453;-72
2022/09/03 01:40:13;;;;;;;4.87;2.00;;;18.10;58.70;;;;;;5040839;28;20470;-73
2022/09/03 01:42:53;;;;;;;4.87;2.03;;;18.00;58.80;;;;;;5035450;28;20979;-73
2022/09/03 01:45:39;;;;;;;5.57;2.20;;;18.00;58.80;;;;;;5020166;28;20474;-73
2022/09/03 01:48:38;;;;;;;4.07;1.70;;;18.00;58.90;;;;;;5018170;28;20484;-73
2022/09/03 01:51:16;;;;;;;4.47;2.03;;;18.00;58.90;;;;;;5037857;28;20482;-73
2022/09/03 01:54:02;;;;;;;6.67;2.10;;;17.90;58.90;;;;;;5042346;28;20455;-73
2022/09/03 01:56:44;;;;;;;5.63;2.60;;;17.90;59.00;;;;;;5038754;28;20459;-73
2022/09/03 01:59:20;;;;;;;7.70;2.47;;;17.90;59.00;;;;;;5021913;28;20479;-73
2022/09/03 02:01:57;;;;;;;4.70;2.00;;;17.80;59.00;;;;;;5036384;28;20475;-73
2022/09/03 02:04:27;;;;;;;5.27;2.10;;;17.80;59.10;;;;;;5030673;28;20555;-73
2022/09/03 02:06:59;;;;;;;6.57;1.90;;;17.80;59.10;;;;;;5040180;28;21078;-72
2022/09/03 02:09:27;;;;;;;4.73;1.90;;;17.80;59.20;;;;;;5030692;28;20594;-73
2022/09/03 02:12:06;;;;;;;4.47;2.13;;;17.80;59.20;;;;;;5041129;28;20450;-73
2022/09/03 02:14:35;;;;;;;7.07;2.20;;;17.80;59.20;;;;;;5027131;28;20459;-73
2022/09/03 02:17:06;;;;;;;6.20;2.20;;;17.80;59.10;;;;;;5039628;28;20470;-73
2022/09/03 02:19:36;;;;;;;5.23;2.10;;;17.80;59.20;;;;;;5035582;28;20488;-73
2022/09/03 02:22:05;;;;;;;6.30;2.30;;;17.70;59.10;;;;;;5038976;28;20487;-73
2022/09/03 02:24:33;;;;;;;4.07;1.73;;;17.70;59.10;;;;;;5037664;28;20488;-73
2022/09/03 02:27:01;;;;;;;4.90;1.80;;;17.60;59.20;;;;;;5036698;28;20462;-73
2022/09/03 02:29:29;;;;;;;6.30;2.10;;;17.60;59.30;;;;;;5026026;28;21037;-74
2022/09/03 02:31:58;;;;;;;6.33;2.03;;;17.60;59.40;;;;;;5039955;28;20498;-74
2022/09/03 02:34:27;;;;;;;4.60;2.13;;;17.50;59.50;;;;;;5036761;28;20455;-75
2022/09/03 02:36:55;;;;;;;4.57;2.20;;;17.50;59.60;;;;;;5038843;28;20450;-73
2022/09/03 02:39:23;;;;;;;4.47;2.20;;;17.60;59.70;;;;;;5034968;28;20490;-73
2022/09/03 02:41:56;;;;;;;7.00;2.70;;;17.60;59.70;;;;;;5040984;28;20495;-73
2022/09/03 02:44:30;;;;;;;5.40;2.17;;;17.60;59.80;;;;;;5024672;28;20547;-73
2022/09/03 02:47:01;;;;;;;4.63;2.00;;;17.60;59.70;;;;;;5040123;28;20470;-74
2022/09/03 02:49:31;;;;;;;5.57;2.30;;;17.60;59.70;;;;;;5023519;28;20476;-73
2022/09/03 02:52:04;;;;;;;5.10;1.87;;;17.50;59.70;;;;;;5037542;28;20468;-73
2022/09/03 02:54:35;;;;;;;5.00;2.13;;;17.50;59.70;;;;;;5037284;28;20463;-74
2022/09/03 02:57:03;;;;;;;4.67;2.10;;;17.50;59.80;;;;;;5040098;28;20472;-73
2022/09/03 02:59:31;;;;;;;4.17;1.93;;;17.40;59.70;;;;;;5021851;28;21238;-73
2022/09/03 03:01:59;;;;;;;5.27;2.40;;;17.30;59.70;;;;;;5038326;28;20450;-74
2022/09/03 03:04:31;;;;;;;6.20;2.60;;;17.30;59.80;;;;;;5043111;28;20490;-73
2022/09/03 03:06:59;;;;;;;4.83;2.27;;;17.30;59.80;;;;;;5041631;28;20481;-73
2022/09/03 03:09:27;;;;;;;5.13;1.97;;;17.20;59.90;;;;;;5039356;28;20566;-73
2022/09/03 03:11:56;;;;;;;4.73;2.40;;;17.20;60.00;;;;;;5041263;28;20482;-73
2022/09/03 03:14:24;;;;;;;4.70;2.33;;;17.10;60.10;;;;;;5044163;28;20803;-73
2022/09/03 03:16:52;;;;;;;5.47;2.40;;;17.10;60.10;;;;;;5047154;28;20464;-74
2022/09/03 03:19:20;;;;;;;5.03;1.90;;;17.10;60.20;;;;;;5042771;28;20653;-73
2022/09/03 03:21:49;;;;;;;4.60;2.17;;;17.10;60.10;;;;;;5040137;28;21021;-73
2022/09/03 03:24:17;;;;;;;4.63;2.20;;;17.00;60.20;;;;;;5039398;28;20459;-74
2022/09/03 03:26:45;;;;;;;5.33;2.50;;;16.90;60.50;;;;;;5043646;28;20465;-73
2022/09/03 03:29:17;;;;;;;5.90;2.50;;;16.90;60.60;;;;;;5040617;28;20866;-74
2022/09/03 03:31:45;;;;;;;5.80;2.67;;;16.90;60.60;;;;;;5043456;28;20574;-74
2022/09/03 03:34:13;;;;;;;7.57;2.80;;;17.00;60.70;;;;;;5037983;28;20483;-74
2022/09/03 03:36:41;;;;;;;4.10;2.07;;;17.00;60.80;;;;;;5040530;28;20471;-74
2022/09/03 03:39:10;;;;;;;4.90;2.40;;;17.00;60.90;;;;;;5037057;28;21051;-74
2022/09/03 03:41:38;;;;;;;6.50;3.30;;;17.00;61.00;;;;;;5031946;28;20452;-73
2022/09/03 03:44:08;;;;;;;5.40;2.20;;;17.10;61.10;;;;;;5044905;28;20488;-73
2022/09/03 03:46:38;;;;;;;5.57;2.63;;;17.10;61.20;;;;;;5039431;28;20455;-73
2022/09/03 03:49:07;;;;;;;4.13;2.20;;;17.10;61.30;;;;;;5029827;28;20474;-73
2022/09/03 03:51:37;;;;;;;4.93;2.63;;;17.20;61.30;;;;;;5036920;28;20485;-73
2022/09/03 03:54:05;;;;;;;4.20;2.07;;;17.20;61.40;;;;;;5034255;28;20473;-74
2022/09/03 03:56:35;;;;;;;5.20;2.53;;;17.20;61.40;;;;;;5038206;28;20444;-73
2022/09/03 03:59:03;;;;;;;5.10;2.57;;;17.20;61.40;;;;;;5041836;28;20493;-73
2022/09/03 04:01:31;;;;;;;4.53;2.40;;;17.10;61.50;;;;;;5019706;28;20467;-73
2022/09/03 04:04:00;;;;;;;4.57;2.33;;;17.10;61.60;;;;;;5021858;28;20904;-73
2022/09/03 04:06:28;;;;;;;4.73;2.27;;;17.00;61.70;;;;;;5033620;28;20464;-73
2022/09/03 04:08:56;;;;;;;4.67;2.37;;;17.00;62.00;;;;;;5020635;28;20498;-74
2022/09/03 04:11:25;;;;;;;6.83;2.10;;;17.00;62.00;;;;;;5034740;28;20483;-73
2022/09/03 04:13:54;;;;;;;4.47;2.07;;;17.00;62.10;;;;;;5038632;28;21008;-74
2022/09/03 04:16:24;;;;;;;4.70;2.00;;;17.00;62.30;;;;;;5037669;28;20447;-74
2022/09/03 04:18:53;;;;;;;4.50;2.10;;;17.00;62.40;;;;;;5039531;28;20575;-73
2022/09/03 04:21:23;;;;;;;5.43;2.40;;;17.10;62.40;;;;;;5040433;28;20448;-73
2022/09/03 04:23:54;;;;;;;5.77;2.50;;;17.10;62.40;;;;;;5038487;28;20459;-73
2022/09/03 04:26:23;;;;;;;5.30;2.33;;;17.20;62.50;;;;;;5036712;28;20542;-73
2022/09/03 04:28:52;;;;;;;4.80;2.27;;;17.30;62.50;;;;;;5034659;28;20488;-73
2022/09/03 04:31:21;;;;;;;4.90;2.03;;;17.30;62.40;;;;;;5034151;28;20564;-73
2022/09/03 04:33:50;;;;;;;5.20;2.50;;;17.30;62.50;;;;;;5035246;28;20488;-73
2022/09/03 04:36:20;;;;;;;4.47;2.47;;;17.30;62.50;;;;;;5033008;28;20460;-73
2022/09/03 04:38:49;;;;;;;5.33;1.93;;;17.30;62.50;;;;;;5037753;28;20821;-73
2022/09/03 04:41:19;;;;;;;4.87;2.47;;;17.40;62.50;;;;;;5036771;28;20539;-73
2022/09/03 04:43:47;;;;;;;4.57;2.00;;;17.40;62.50;;;;;;5032833;28;20482;-73
2022/09/03 04:46:20;;;;;;;4.20;2.17;;;17.40;62.50;;;;;;5034099;28;20467;-73
2022/09/03 04:48:50;;;;;;;5.03;2.47;;;17.40;62.50;;;;;;5036513;28;20483;-73
2022/09/03 04:51:21;;;;;;;5.60;2.33;;;17.50;62.50;;;;;;5035800;28;21016;-73
2022/09/03 04:53:53;;;;;;;4.60;1.87;;;17.50;62.50;;;;;;5037264;28;20440;-73
2022/09/03 04:56:24;;;;;;;4.40;2.10;;;17.50;62.50;;;;;;5028904;28;20456;-73
2022/09/03 04:58:56;;;;;;;6.03;2.13;;;17.50;62.50;;;;;;5040339;28;20487;-73
2022/09/03 05:01:25;;;;;;;5.03;2.33;;;17.50;62.50;;;;;;5036476;28;20467;-73
2022/09/03 05:03:56;;;;;;;4.63;2.00;;;17.60;62.50;;;;;;5041063;28;20459;-73
2022/09/03 05:06:25;;;;;;;5.07;2.33;;;17.50;62.40;;;;;;5039089;28;20443;-73
2022/09/03 05:08:54;;;;;;;6.70;2.10;;;17.50;62.40;;;;;;5044096;28;21015;-73
2022/09/03 05:11:23;;;;;;;10.00;2.10;;;17.40;62.40;;;;;;5036914;28;20515;-73
2022/09/03 05:13:53;;;;;;;4.43;1.80;;;17.40;62.50;;;;;;5044479;28;21120;-73
2022/09/03 05:16:23;;;;;;;5.00;2.33;;;17.40;62.60;;;;;;5039419;28;20854;-73
2022/09/03 05:18:53;;;;;;;4.90;2.30;;;17.40;62.60;;;;;;5039191;28;20510;-73
2022/09/03 05:21:23;;;;;;;3.80;1.73;;;17.40;62.60;;;;;;5038629;28;20447;-73
2022/09/03 05:23:52;;;;;;;5.90;2.30;;;17.40;62.70;;;;;;5036126;28;20452;-73
2022/09/03 05:26:22;;;;;;;6.40;2.10;;;17.40;62.70;;;;;;5038915;28;20453;-73
2022/09/03 05:28:54;;;;;;;6.93;2.77;;;17.30;62.70;;;;;;5039633;28;20501;-73
2022/09/03 05:31:25;;;;;;;4.43;2.10;;;17.30;62.80;;;;;;5034196;28;20465;-73
2022/09/03 05:33:56;;;;;;;6.80;2.10;;;17.30;62.80;;;;;;5039425;28;20466;-73
2022/09/03 05:36:27;;;;;;;5.60;2.13;;;17.40;62.80;;;;;;5042933;28;20460;-73
2022/09/03 05:38:56;;;;;;;5.60;2.40;;;17.40;62.80;;;;;;5039443;28;20493;-73
2022/09/03 05:41:26;;;;;;;5.70;2.40;;;17.30;62.90;;;;;;5037891;28;20470;-73
2022/09/03 05:43:57;;;;;;;6.23;2.30;;;17.30;62.80;;;;;;5030125;28;20467;-73
2022/09/03 05:46:30;;;;;;;6.13;2.20;;;17.30;62.90;;;;;;5030351;28;20597;-73
2022/09/03 05:48:59;;;;;;;7.90;2.27;;;17.30;63.00;;;;;;5040852;28;20490;-73
2022/09/03 05:51:29;;;;;;;5.07;2.43;;;17.30;63.00;;;;;;5040013;28;20827;-73
2022/09/03 05:53:58;;;;;;;4.50;2.17;;;17.30;63.20;;;;;;5042307;28;20443;-73
2022/09/03 05:56:28;;;;;;;3.87;1.87;;;17.30;63.10;;;;;;5036479;28;21182;-73
2022/09/03 05:58:59;;;;;;;4.60;2.10;;;17.30;63.20;;;;;;5025692;28;20547;-73
2022/09/03 06:01:29;;;;;;;4.60;2.47;;;17.40;63.30;;;;;;5031106;28;20473;-73
2022/09/03 06:03:59;;;;;;;4.30;2.00;;;17.40;63.20;;;;;;5039934;28;20470;-73
2022/09/03 06:06:30;;;;;;;5.93;2.43;;;17.40;63.20;;;;;;5039230;28;20513;-73
2022/09/03 06:09:01;;;;;;;10.07;2.20;;;17.40;63.20;;;;;;5041798;28;20475;-73
2022/09/03 06:11:30;;;;;;;5.20;2.37;;;17.40;63.20;;;;;;5036372;28;20464;-73
2022/09/03 06:14:00;;;;;;;5.53;2.03;;;17.40;63.30;;;;;;5022628;28;20474;-73
2022/09/03 06:16:29;;;;;;;5.10;1.90;;;17.50;63.20;;;;;;5040082;28;21059;-73
2022/09/03 06:18:59;;;;;;;7.40;2.23;;;17.50;63.30;;;;;;5022373;28;20479;-73
2022/09/03 06:21:29;;;;;;;5.07;2.37;;;17.50;63.30;;;;;;5041471;28;20463;-73
2022/09/03 06:23:58;;;;;;;5.43;2.00;;;17.50;63.30;;;;;;5029220;28;21071;-72
2022/09/03 06:26:28;;;;;;;6.63;1.90;;;17.50;63.30;;;;;;5039252;28;20450;-73
2022/09/03 06:28:57;;;;;;;4.47;2.00;;;17.50;63.30;;;;;;5045356;28;20509;-72
2022/09/03 06:31:25;;;;;;;6.10;2.30;;;17.50;63.30;;;;;;5025340;28;20470;-73
2022/09/03 06:33:54;;;;;;;4.73;1.93;;;17.50;63.30;;;;;;5042865;28;20483;-74
2022/09/03 06:36:29;;;;;;;6.87;2.53;;;17.50;63.40;;;;;;5018843;28;20451;-73
2022/09/03 06:38:57;;;;;;;7.00;2.80;;;17.50;63.40;;;;;;5039835;28;21364;-73
2022/09/03 06:41:30;;;;;;;6.77;2.50;;;17.50;63.40;;;;;;5042879;28;20459;-71
2022/09/03 06:44:01;;;;;;;5.90;2.17;;;17.50;63.40;;;;;;5041338;28;20867;-72
2022/09/03 06:46:30;;;;;;;8.40;2.47;;;17.60;63.50;;;;;;5042094;28;20469;-72
2022/09/03 06:48:59;;;;;;;6.23;2.10;;;17.60;63.50;;;;;;5039390;28;21147;-75
2022/09/03 06:51:30;;;;;;;6.03;2.20;;;17.70;63.40;;;;;;5037833;28;20498;-73
2022/09/03 06:54:01;;;;;;;5.33;2.40;;;17.70;63.40;;;;;;5021828;28;20463;-73
2022/09/03 06:56:32;;;;;;;4.30;2.10;;;17.70;63.40;;;;;;5037735;28;20535;-73
2022/09/03 06:59:08;;;;;;;5.93;2.43;;;17.80;63.50;;;;;;5041737;28;21028;-73
2022/09/03 07:01:39;;;;;;;5.20;1.90;;;17.90;63.50;;;;;;5041154;28;20476;-73
2022/09/03 07:04:12;;;;;;;7.67;2.70;;;17.90;63.40;;;;;;5036603;28;20483;-73
2022/09/03 07:06:43;;;;;;;4.30;2.10;;;18.00;63.40;;;;;;5039660;28;20506;-73
2022/09/03 07:09:14;;;;;;;8.73;4.33;;;18.10;63.30;;;;;;5041315;28;20492;-73
2022/09/03 07:11:46;;;;;;;4.50;2.53;;;18.20;63.20;;;;;;5039793;28;20831;-73
2022/09/03 07:14:16;;;;;;;5.07;2.37;;;18.30;63.10;;;;;;5030287;28;20537;-73
2022/09/03 07:16:45;;;;;;;4.70;2.30;;;18.30;63.10;;;;;;5044962;28;21417;-72
2022/09/03 07:19:14;;;;;;;9.27;2.40;;;18.40;63.00;;;;;;5032899;28;20487;-73
2022/09/03 07:21:44;;;;;;;5.00;1.67;;;18.40;62.90;;;;;;5038615;28;20475;-73
2022/09/03 07:24:18;;;;;;;5.70;2.13;;;18.40;62.90;;;;;;5035377;28;20497;-73
2022/09/03 07:26:47;;;;;;;5.10;2.57;;;18.50;62.80;;;;;;5039484;28;20550;-73
2022/09/03 07:29:18;;;;;;;7.97;2.10;;;18.50;62.80;;;;;;5019933;28;20484;-73
2022/09/03 07:31:50;;;;;;;10.63;2.83;;;18.60;62.70;;;;;;5019844;28;20461;-72
2022/09/03 07:34:19;;;;;;;5.10;2.40;;;18.60;62.60;;;;;;5035462;28;20472;-73
2022/09/03 07:36:51;;;;;;;6.47;2.30;;;18.60;62.50;;;;;;5040272;28;20474;-73
2022/09/03 07:39:19;;;;;;;11.10;2.20;;;18.70;62.50;;;;;;5040155;28;21446;-73
2022/09/03 07:41:49;;;;;;;7.83;2.60;;;18.70;62.60;;;;;;5042970;28;20515;-73
2022/09/03 07:44:19;;;;;;;9.50;2.43;;;18.80;62.50;;;;;;5043375;28;20460;-73
2022/09/03 07:46:49;;;;;;;4.67;2.20;;;18.90;62.50;;;;;;5041281;28;20516;-72
2022/09/03 07:49:19;;;;;;;4.10;2.00;;;19.00;62.40;;;;;;5019443;28;20486;-73
2022/09/03 07:51:49;;;;;;;7.83;2.23;;;19.10;62.30;;;;;;5039350;28;20547;-73
2022/09/03 07:54:20;;;;;;;5.50;1.90;;;19.10;62.30;;;;;;5040545;28;20484;-72
2022/09/03 07:56:48;;;;;;;11.03;5.43;;;19.20;62.20;;;;;;5036392;28;20957;-73
2022/09/03 07:59:16;;;;;;;5.57;2.07;;;19.20;62.20;;;;;;5022658;28;20486;-73
2022/09/03 08:01:44;;;;;;;4.70;2.50;;;19.30;62.00;;;;;;5035341;28;20482;-73
2022/09/03 08:04:13;;;;;;;7.13;2.50;;;19.40;61.90;;;;;;5038110;28;20467;-72
2022/09/03 08:06:41;;;;;;;4.60;2.13;;;19.40;61.80;;;;;;5035999;28;20462;-72
2022/09/03 08:09:12;;;;;;;4.60;2.20;;;19.40;61.80;;;;;;5033452;28;20484;-73
2022/09/03 08:11:43;;;;;;;4.70;2.00;;;19.50;61.80;;;;;;5034236;28;20986;-72
2022/09/03 08:14:13;;;;;;;20.00;3.30;;;19.60;61.80;;;;;;5032988;28;21161;-72
2022/09/03 08:16:44;;;;;;;5.13;1.97;;;19.60;61.80;;;;;;5032336;28;20535;-72
2022/09/03 08:19:13;;;;;;;6.37;2.60;;;19.70;61.60;;;;;;5033797;28;20478;-72
2022/09/03 08:21:41;;;;;;;6.53;2.50;;;19.70;61.50;;;;;;5032113;28;20474;-72
2022/09/03 08:24:10;;;;;;;9.30;2.70;;;19.80;61.40;;;;;;5038886;28;20459;-73
2022/09/03 08:26:41;;;;;;;6.07;2.23;;;19.80;61.40;;;;;;5037551;28;20468;-73
2022/09/03 08:29:16;;;;;;;5.73;2.23;;;19.90;61.30;;;;;;5035884;28;20473;-71
2022/09/03 08:31:44;;;;;;;4.87;2.30;;;19.90;61.30;;;;;;5039619;28;20464;-71
2022/09/03 08:34:13;;;;;;;5.40;2.53;;;20.00;61.30;;;;;;5037210;28;20493;-72
2022/09/03 08:36:41;;;;;;;5.30;2.47;;;20.10;61.30;;;;;;5038542;28;20904;-72
2022/09/03 08:39:11;;;;;;;5.07;2.40;;;20.10;61.30;;;;;;5044959;28;20493;-72
2022/09/03 08:42:19;;;;;;;5.77;2.40;;;20.30;61.20;;;;;;5024184;28;20847;-72
2022/09/03 08:44:53;;;;;;;5.63;2.73;;;20.40;61.10;;;;;;5040092;28;20456;-71
2022/09/03 08:47:26;;;;;;;5.57;2.40;;;20.50;61.00;;;;;;5038467;28;20462;-71
2022/09/03 08:49:57;;;;;;;7.30;2.60;;;20.50;60.80;;;;;;5040219;28;20491;-72
2022/09/03 08:52:31;;;;;;;6.20;2.17;;;20.60;60.70;;;;;;5036556;28;20463;-71
2022/09/03 08:55:07;;;;;;;5.97;2.63;;;20.60;60.60;;;;;;5037274;28;20501;-72
2022/09/03 08:57:43;;;;;;;5.00;2.40;;;20.60;60.30;;;;;;5034605;28;20476;-72
2022/09/03 09:00:13;;;;;;;7.67;2.60;;;20.60;60.30;;;;;;5041952;28;20490;-72
2022/09/03 09:02:53;;;;;;;7.40;2.60;;;20.60;60.30;;;;;;5018881;28;20462;-71
2022/09/03 09:05:30;;;;;;;7.50;2.60;;;20.60;60.30;;;;;;5036752;28;21245;-72
2022/09/03 09:08:08;;;;;;;8.50;2.10;;;20.60;60.30;;;;;;5035919;28;20485;-72
2022/09/03 09:10:44;;;;;;;6.87;2.13;;;20.70;60.30;;;;;;5016568;28;20480;-72
2022/09/03 09:13:21;;;;;;;8.00;2.27;;;20.70;60.20;;;;;;5031858;28;20535;-72
2022/09/03 09:15:57;;;;;;;7.30;2.50;;;20.80;60.30;;;;;;5037422;28;20450;-72
2022/09/03 09:18:38;;;;;;;9.33;2.90;;;20.90;60.20;;;;;;5037671;28;20922;-72
2022/09/03 09:21:12;;;;;;;6.57;3.10;;;20.90;60.00;;;;;;5037772;28;20450;-72
2022/09/03 09:23:48;;;;;;;7.30;2.63;;;20.90;59.90;;;;;;5036434;28;20460;-72
2022/09/03 09:26:20;;;;;;;5.60;2.00;;;20.90;59.80;;;;;;5031299;28;20448;-71
2022/09/03 09:28:55;;;;;;;5.30;2.10;;;20.90;59.80;;;;;;5034241;28;20492;-71
2022/09/03 09:31:25;;;;;;;5.90;2.43;;;20.90;59.90;;;;;;5033786;28;20572;-71
2022/09/03 09:33:54;;;;;;;6.30;2.73;;;21.00;59.80;;;;;;5036091;28;20511;-72
2022/09/03 09:36:23;;;;;;;5.57;2.30;;;21.00;59.80;;;;;;5041990;28;21017;-72
2022/09/03 09:38:52;;;;;;;6.70;2.90;;;21.00;59.80;;;;;;5038656;28;20498;-73
2022/09/03 09:41:22;;;;;;;5.60;2.23;;;21.00;59.80;;;;;;5037716;28;20451;-74
2022/09/03 09:44:01;;;;;;;8.33;2.70;;;21.10;59.90;;;;;;5040639;28;20450;-74
2022/09/03 09:46:35;;;;;;;8.10;2.60;;;21.20;59.90;;;;;;5037318;28;20462;-74
2022/09/03 09:49:28;;;;;;;6.17;2.30;;;21.20;59.80;;;;;;5040406;28;20488;-74
2022/09/03 09:52:02;;;;;;;5.90;2.63;;;21.30;59.70;;;;;;5042826;28;20477;-74
2022/09/03 09:54:30;;;;;;;4.57;1.90;;;21.30;59.70;;;;;;5037045;28;20491;-73
2022/09/03 09:57:02;;;;;;;7.70;2.50;;;21.40;59.70;;;;;;5041609;28;20448;-74
2022/09/03 09:59:31;;;;;;;7.30;2.70;;;21.40;59.60;;;;;;5041989;28;20827;-73
2022/09/03 10:02:11;;;;;;;6.97;2.53;;;21.50;59.50;;;;;;5041815;28;20483;-74
2022/09/03 10:04:49;;;;;;;5.27;2.63;;;21.50;59.50;;;;;;5044325;28;20455;-74
2022/09/03 10:07:28;;;;;;;6.00;2.33;;;21.50;59.40;;;;;;5043218;28;20541;-75
2022/09/03 10:10:04;;;;;;;4.90;2.57;;;21.60;59.40;;;;;;5036357;28;20486;-74
2022/09/03 10:12:40;;;;;;;4.60;2.20;;;21.60;59.40;;;;;;5036942;28;20527;-73
2022/09/03 10:15:17;;;;;;;5.90;2.40;;;21.60;59.30;;;;;;5042103;28;20480;-74
2022/09/03 10:17:56;;;;;;;8.20;2.70;;;21.70;59.20;;;;;;5040761;28;20459;-77
2022/09/03 10:20:35;;;;;;;5.60;2.03;;;21.70;59.20;;;;;;5028529;28;21301;-77
2022/09/03 10:23:11;;;;;;;6.83;2.43;;;21.70;59.10;;;;;;5045661;28;20464;-77
2022/09/03 10:25:49;;;;;;;5.70;1.97;;;21.70;59.20;;;;;;5039815;28;20791;-77
2022/09/03 10:28:18;;;;;;;5.43;2.27;;;21.70;59.20;;;;;;5040909;28;20941;-76
2022/09/03 10:31:05;;;;;;;7.30;1.87;;;21.80;59.20;;;;;;5041771;28;20484;-76
2022/09/03 10:33:41;;;;;;;4.30;1.80;;;21.80;59.10;;;;;;5020174;28;20467;-76
2022/09/03 10:36:15;;;;;;;6.23;2.20;;;21.80;59.10;;;;;;5035123;28;20485;-76
2022/09/03 10:38:47;;;;;;;8.60;2.57;;;21.80;59.00;;;;;;5041591;28;20510;-76
2022/09/03 10:41:32;;;;;;;5.50;2.30;;;21.80;59.10;;;;;;5043454;28;20455;-76
2022/09/03 10:44:17;;;;;;;4.80;2.20;;;21.90;59.20;;;;;;5042649;28;20444;-76
2022/09/03 10:46:57;;;;;;;5.27;2.33;;;21.80;59.20;;;;;;5034690;28;20476;-77
2022/09/03 10:49:42;;;;;;;8.10;2.27;;;21.80;59.40;;;;;;5037628;28;20488;-78
2022/09/03 10:52:17;;;;;;;8.20;2.60;;;21.80;59.50;;;;;;5041546;28;20488;-78
2022/09/03 10:54:58;;;;;;;6.23;2.50;;;21.80;59.50;;;;;;5032773;28;20477;-78
2022/09/03 10:57:35;;;;;;;4.90;2.50;;;21.80;59.50;;;;;;5038614;28;20513;-77
2022/09/03 11:00:08;;;;;;;4.70;2.30;;;21.80;59.50;;;;;;5039092;28;20495;-78
2022/09/03 11:03:06;;;;;;;6.83;2.70;;;21.80;59.50;;;;;;5037740;28;20450;-78
2022/09/03 11:05:39;;;;;;;5.30;2.17;;;21.90;59.40;;;;;;5037328;28;20483;-77
2022/09/03 11:08:12;;;;;;;5.93;2.60;;;21.80;59.40;;;;;;5036613;28;21272;-77
2022/09/03 11:10:43;;;;;;;4.70;2.50;;;21.80;59.40;;;;;;5040819;28;20470;-77
2022/09/03 11:13:19;;;;;;;9.30;2.70;;;21.80;59.60;;;;;;5041125;28;20489;-78
2022/09/03 11:15:51;;;;;;;5.20;2.17;;;21.80;59.90;;;;;;5036863;28;20489;-77
2022/09/03 11:18:24;;;;;;;5.90;2.63;;;21.80;60.10;;;;;;5035052;28;20459;-79
2022/09/03 11:21:03;;;;;;;8.23;3.00;;;21.80;60.40;;;;;;5043152;28;20492;-77
2022/09/03 11:23:40;;;;;;;7.37;4.00;;;21.70;60.70;;;;;;5038131;28;20482;-77
2022/09/03 11:26:12;;;;;;;8.20;3.93;;;21.60;61.50;;;;;;5035350;28;20525;-76
2022/09/03 11:28:48;;;;;;;9.93;4.10;;;21.50;62.40;;;;;;5038188;28;20480;-76
2022/09/03 11:31:30;;;;;;;8.67;4.10;;;21.40;63.10;;;;;;5037339;28;20461;-76
2022/09/03 11:34:04;;;;;;;9.20;4.50;;;21.40;63.70;;;;;;5039538;28;20572;-75
2022/09/03 11:36:38;;;;;;;9.77;4.53;;;21.40;64.10;;;;;;5039056;28;20506;-76
2022/09/03 11:39:20;;;;;;;10.20;4.57;;;21.30;64.60;;;;;;5040569;28;20486;-75
2022/09/03 11:42:03;;;;;;;9.33;4.77;;;21.30;65.20;;;;;;5039822;28;20734;-76
2022/09/03 11:44:37;;;;;;;13.53;5.53;;;21.30;65.70;;;;;;5035592;28;20459;-76
2022/09/03 11:47:22;;;;;;;14.20;5.70;;;21.30;66.30;;;;;;5039378;28;21029;-76
2022/09/03 11:49:52;;;;;;;16.00;7.90;;;21.30;66.60;;;;;;5038404;28;20488;-76
2022/09/03 11:52:31;;;;;;;15.00;7.50;;;21.30;66.90;;;;;;5033591;28;20484;-77
2022/09/03 11:54:59;;;;;;;9.87;5.90;;;21.40;67.50;;;;;;5039751;28;20961;-75
2022/09/03 11:57:29;;;;;;;13.80;6.77;;;21.40;68.00;;;;;;5034238;28;21031;-76
2022/09/03 12:00:11;;;;;;;7.67;5.00;;;21.50;68.40;;;;;;5034384;28;20508;-75
2022/09/03 12:02:45;;;;;;;6.80;4.03;;;21.50;69.00;;;;;;5033062;28;20448;-75
2022/09/03 12:05:21;;;;;;;9.33;4.80;;;21.60;68.50;;;;;;5034455;28;20450;-75
2022/09/03 12:08:24;;;;;;;7.40;3.90;;;21.50;68.40;;;;;;5035415;28;20448;-76
2022/09/03 12:10:59;;;;;;;8.03;3.90;;;21.60;68.40;;;;;;5020278;28;20454;-77
2022/09/03 12:13:42;;;;;;;8.50;4.37;;;21.60;68.40;;;;;;5013389;28;20464;-77
2022/09/03 12:16:39;;;;;;;8.50;5.43;;;21.60;68.50;;;;;;5036745;28;20470;-77
2022/09/03 12:19:15;;;;;;;7.93;4.30;;;21.50;68.70;;;;;;5030739;28;20841;-76
2022/09/03 12:21:49;;;;;;;8.57;5.70;;;21.50;68.80;;;;;;5037816;28;21284;-76
2022/09/03 12:24:22;;;;;;;8.83;4.90;;;21.50;69.10;;;;;;5034111;28;20452;-77
2022/09/03 12:26:50;;;;;;;8.30;4.80;;;21.50;69.40;;;;;;5042062;28;20809;-76
2022/09/03 12:29:24;;;;;;;10.60;4.47;;;21.50;69.50;;;;;;5038267;28;20503;-76
2022/09/03 12:31:56;;;;;;;6.90;4.30;;;21.50;69.80;;;;;;5036855;28;21305;-76
2022/09/03 12:34:26;;;;;;;12.20;5.03;;;21.50;69.60;;;;;;5034483;28;20452;-76
2022/09/03 12:36:54;;;;;;;7.50;4.43;;;21.50;69.60;;;;;;5036863;28;21109;-76
2022/09/03 12:39:26;;;;;;;10.20;4.47;;;21.60;69.70;;;;;;5021026;28;20477;-76
2022/09/03 12:42:20;;;;;;;6.30;4.13;;;21.60;69.60;;;;;;5033558;28;20474;-77
2022/09/03 12:44:48;;;;;;;8.43;3.90;;;21.70;69.30;;;;;;5035731;28;20551;-77
2022/09/03 12:47:18;;;;;;;7.87;5.03;;;21.70;69.10;;;;;;5031172;28;20842;-76
2022/09/03 12:50:07;;;;;;;8.13;3.57;;;21.80;69.00;;;;;;5036331;28;20483;-75
2022/09/03 12:52:39;;;;;;;7.63;3.93;;;21.80;68.80;;;;;;5034048;28;20467;-76
2022/09/03 12:55:26;;;;;;;33.63;9.10;;;21.80;68.70;;;;;;5036144;28;20462;-75
2022/09/03 12:58:04;;;;;;;22.40;5.10;;;21.90;68.70;;;;;;5021276;28;20492;-75
2022/09/03 13:00:34;;;;;;;11.90;5.33;;;21.90;68.80;;;;;;5036527;28;20497;-75
2022/09/03 13:03:06;;;;;;;11.63;4.50;;;22.00;68.60;;;;;;5037612;28;20470;-75
2022/09/03 13:05:43;;;;;;;8.60;4.23;;;22.00;68.50;;;;;;5035783;28;20926;-75
2022/09/03 13:08:18;;;;;;;8.53;4.10;;;22.10;68.40;;;;;;5035502;28;20461;-75
2022/09/03 13:10:51;;;;;;;8.13;3.83;;;22.10;68.30;;;;;;5021833;28;20482;-75
2022/09/03 13:13:23;;;;;;;7.50;3.40;;;22.10;68.10;;;;;;5022786;28;20457;-76
2022/09/03 13:16:25;;;;;;;6.37;3.60;;;22.10;68.10;;;;;;5015199;28;20623;-76